Time,TemperatureF,DewpointF,PressureIn,WindDirection,WindDirectionDegrees,WindSpeedMPH,WindSpeedGustMPH,Humidity,HourlyPrecipIn,Conditions,Clouds,dailyrainin,SolarRadiationWatts/m^2,SoftwareType,DateUTC
2013-03-07 00:01:00,13.2,10.6,30.25,SE,128,15.0,18.0,89,0.00,,BKN014,0.00,0.00,VWS V14.00,2013-03-07 06:01:00,
2013-03-07 00:06:00,13.3,10.7,30.25,ESE,113,17.0,22.0,89,0.00,,BKN014,0.00,0.00,VWS V14.00,2013-03-07 06:06:00,
2013-03-07 00:11:00,13.4,10.8,30.25,ESE,117,19.0,23.0,89,0.00,,BKN014,0.00,0.00,VWS V14.00,2013-03-07 06:11:00,
2013-03-07 00:16:00,13.5,10.9,30.24,ESE,115,17.0,25.0,89,0.00,,BKN014,0.00,0.00,VWS V14.00,2013-03-07 06:16:00,
2013-03-07 00:21:00,13.6,11.0,30.24,ESE,119,11.0,25.0,89,0.00,,BKN014,0.00,0.00,VWS V14.00,2013-03-07 06:21:00,
2013-03-07 00:26:00,13.7,11.1,30.24,ESE,121,14.0,25.0,89,0.00,,BKN014,0.00,0.00,VWS V14.00,2013-03-07 06:26:00,
2013-03-07 00:31:00,13.9,11.3,30.25,ESE,109,15.0,18.0,89,0.00,,BKN014,0.00,0.00,VWS V14.00,2013-03-07 06:31:00,
2013-03-07 00:36:00,14.1,11.5,30.24,SE,125,13.0,21.0,89,0.00,,BKN014,0.00,0.00,VWS V14.00,2013-03-07 06:36:00,
2013-03-07 00:41:00,14.4,11.8,30.24,SE,127,17.0,21.0,89,0.00,,OVC014,0.00,0.00,VWS V14.00,2013-03-07 06:41:00,
2013-03-07 00:46:00,14.6,11.9,30.24,ESE,119,18.0,26.0,89,0.00,,OVC014,0.00,0.00,VWS V14.00,2013-03-07 06:46:00,
2013-03-07 00:51:00,14.7,12.1,30.24,ESE,120,18.0,26.0,89,0.00,,OVC014,0.00,0.00,VWS V14.00,2013-03-07 06:51:00,
2013-03-07 00:56:00,14.9,12.2,30.24,ESE,121,15.0,26.0,89,0.00,,OVC014,0.00,0.00,VWS V14.00,2013-03-07 06:56:00,
2013-03-07 01:01:00,14.9,12.2,30.23,SE,128,15.0,23.0,89,0.00,,OVC014,0.00,0.00,VWS V14.00,2013-03-07 07:01:00,
2013-03-07 01:06:00,15.0,12.6,30.23,SE,126,21.0,24.0,90,0.00,,OVC014,0.00,0.00,VWS V14.00,2013-03-07 07:06:00,
2013-03-07 01:11:00,15.0,12.6,30.23,SE,136,18.0,24.0,90,0.00,,OVC014,0.00,0.00,VWS V14.00,2013-03-07 07:11:00,
2013-03-07 01:16:00,15.1,12.7,30.23,ESE,109,17.0,24.0,90,0.00,,OVC014,0.00,0.00,VWS V14.00,2013-03-07 07:16:00,
2013-03-07 01:21:00,15.1,12.7,30.24,ESE,119,18.0,24.0,90,0.00,,OVC014,0.00,0.00,VWS V14.00,2013-03-07 07:21:00,
2013-03-07 01:27:00,15.1,12.7,30.23,ESE,118,16.0,24.0,90,0.00,,OVC014,0.00,0.00,VWS V14.00,2013-03-07 07:27:00,
2013-03-07 01:32:00,15.2,12.8,30.23,ESE,112,16.0,17.0,90,0.00,,OVC014,0.00,0.00,VWS V14.00,2013-03-07 07:32:00,
2013-03-07 01:37:00,15.3,12.9,30.23,ESE,111,18.0,19.0,90,0.00,,OVC014,0.00,0.00,VWS V14.00,2013-03-07 07:37:00,
2013-03-07 01:42:00,15.3,12.9,30.23,ESE,113,14.0,21.0,90,0.00,,OVC011,0.00,0.00,VWS V14.00,2013-03-07 07:42:00,
2013-03-07 01:47:00,15.4,13.0,30.23,ESE,113,13.0,21.0,90,0.00,,OVC011,0.00,0.00,VWS V14.00,2013-03-07 07:47:00,
2013-03-07 01:52:00,15.5,13.1,30.23,ESE,119,14.0,21.0,90,0.00,,OVC011,0.00,0.00,VWS V14.00,2013-03-07 07:52:00,
2013-03-07 01:57:00,15.7,13.3,30.22,ESE,119,18.0,22.0,90,0.00,,OVC011,0.00,0.00,VWS V14.00,2013-03-07 07:57:00,
2013-03-07 02:02:00,15.8,13.6,30.21,ESE,120,17.0,19.0,91,0.00,,OVC011,0.00,0.00,VWS V14.00,2013-03-07 08:02:00,
2013-03-07 02:07:00,15.8,13.6,30.21,ESE,119,16.0,23.0,91,0.00,,OVC011,0.00,0.00,VWS V14.00,2013-03-07 08:07:00,
2013-03-07 02:12:00,15.9,13.7,30.21,ESE,120,15.0,23.0,91,0.00,,OVC011,0.00,0.00,VWS V14.00,2013-03-07 08:12:00,
2013-03-07 02:18:00,15.9,13.7,30.21,SE,128,15.0,23.0,91,0.00,,OVC011,0.00,0.00,VWS V14.00,2013-03-07 08:18:00,
2013-03-07 02:23:00,15.9,13.7,30.21,SE,128,16.0,23.0,91,0.00,,OVC011,0.00,0.00,VWS V14.00,2013-03-07 08:23:00,
2013-03-07 02:28:00,16.0,13.8,30.20,SE,125,22.0,23.0,91,0.00,,OVC011,0.00,0.00,VWS V14.00,2013-03-07 08:28:00,
2013-03-07 02:33:00,15.9,13.5,30.20,ESE,119,15.0,24.0,90,0.00,,OVC011,0.00,0.00,VWS V14.00,2013-03-07 08:33:00,
2013-03-07 02:38:00,16.0,13.6,30.19,SE,128,18.0,24.0,90,0.00,,OVC011,0.00,0.00,VWS V14.00,2013-03-07 08:38:00,
2013-03-07 02:43:00,16.0,13.6,30.19,SE,128,18.0,24.0,90,0.00,,OVC012,0.00,0.00,VWS V14.00,2013-03-07 08:43:00,
2013-03-07 02:48:00,16.0,13.6,30.19,SE,124,13.0,24.0,90,0.00,,OVC012,0.00,0.00,VWS V14.00,2013-03-07 08:48:00,
2013-03-07 02:53:00,16.0,13.6,30.18,SE,126,15.0,24.0,90,0.00,,OVC012,0.00,0.00,VWS V14.00,2013-03-07 08:53:00,
2013-03-07 02:58:00,15.9,13.5,30.18,ESE,114,12.0,24.0,90,0.00,,OVC012,0.00,0.00,VWS V14.00,2013-03-07 08:58:00,
2013-03-07 03:03:00,15.8,13.4,30.18,ESE,108,17.0,22.0,90,0.00,,OVC012,0.00,0.00,VWS V14.00,2013-03-07 09:03:00,
2013-03-07 03:08:00,15.7,13.3,30.18,ESE,118,16.0,22.0,90,0.00,,OVC012,0.00,0.00,VWS V14.00,2013-03-07 09:08:00,
2013-03-07 03:13:00,15.8,13.6,30.18,SE,128,9.0,22.0,91,0.00,,OVC012,0.00,0.00,VWS V14.00,2013-03-07 09:13:00,
2013-03-07 03:18:00,16.1,13.9,30.17,ESE,112,14.0,22.0,91,0.00,,OVC012,0.00,0.00,VWS V14.00,2013-03-07 09:18:00,
2013-03-07 03:24:00,16.1,13.7,30.17,ESE,118,14.0,22.0,90,0.00,,OVC012,0.00,0.00,VWS V14.00,2013-03-07 09:24:00,
2013-03-07 03:29:00,16.1,13.7,30.17,ESE,111,11.0,15.0,90,0.00,,OVC012,0.00,0.00,VWS V14.00,2013-03-07 09:29:00,
2013-03-07 03:34:00,16.1,13.9,30.18,ESE,113,17.0,19.0,91,0.00,,OVC012,0.00,0.00,VWS V14.00,2013-03-07 09:34:00,
2013-03-07 03:39:00,16.1,13.9,30.18,East,101,13.0,19.0,91,0.00,,OVC012,0.00,0.00,VWS V14.00,2013-03-07 09:39:00,
2013-03-07 03:44:00,16.1,13.9,30.18,East,100,11.0,19.0,91,0.00,,SCT014,0.00,0.00,VWS V14.00,2013-03-07 09:44:00,
2013-03-07 03:49:00,16.1,13.7,30.18,ESE,105,11.0,19.0,90,0.00,,SCT014,0.00,0.00,VWS V14.00,2013-03-07 09:49:00,
2013-03-07 03:54:00,16.1,13.9,30.17,East,88,14.0,19.0,91,0.00,,SCT014,0.00,0.00,VWS V14.00,2013-03-07 09:54:00,
2013-03-07 03:59:00,16.2,14.0,30.17,East,97,15.0,16.0,91,0.00,,SCT014,0.00,0.00,VWS V14.00,2013-03-07 09:59:00,
2013-03-07 04:04:00,16.2,14.0,30.17,ESE,106,11.0,16.0,91,0.00,,SCT014,0.00,0.00,VWS V14.00,2013-03-07 10:04:00,
2013-03-07 04:09:00,16.1,13.7,30.16,East,88,13.0,16.0,90,0.00,,SCT014,0.00,0.00,VWS V14.00,2013-03-07 10:09:00,
2013-03-07 04:16:00,15.8,13.4,30.16,East,101,13.0,17.0,90,0.00,,SCT014,0.00,0.00,VWS V14.00,2013-03-07 10:16:00,
2013-03-07 04:21:00,15.8,13.4,30.16,ESE,123,14.0,17.0,90,0.00,,SCT014,0.00,0.00,VWS V14.00,2013-03-07 10:21:00,
2013-03-07 04:26:00,15.8,13.6,30.16,East,96,15.0,17.0,91,0.00,,SCT014,0.00,0.00,VWS V14.00,2013-03-07 10:26:00,
2013-03-07 04:31:00,15.8,13.6,30.15,ESE,102,13.0,19.0,91,0.00,,SCT014,0.00,0.00,VWS V14.00,2013-03-07 10:31:00,
2013-03-07 04:36:00,15.8,13.6,30.15,ESE,109,12.0,21.0,91,0.00,,SCT014,0.00,0.00,VWS V14.00,2013-03-07 10:36:00,
2013-03-07 04:41:00,15.7,13.5,30.15,East,92,10.0,21.0,91,0.00,,CLR,0.00,0.00,VWS V14.00,2013-03-07 10:41:00,
2013-03-07 04:46:00,15.4,13.0,30.15,ESE,107,16.0,21.0,90,0.00,,CLR,0.00,0.00,VWS V14.00,2013-03-07 10:46:00,
2013-03-07 04:51:00,15.3,12.9,30.16,ESE,108,15.0,21.0,90,0.00,,CLR,0.00,0.00,VWS V14.00,2013-03-07 10:51:00,
2013-03-07 04:56:00,15.2,13.1,30.16,East,89,10.0,21.0,91,0.00,,CLR,0.00,0.00,VWS V14.00,2013-03-07 10:56:00,
2013-03-07 05:01:00,15.2,12.8,30.15,East,98,11.0,19.0,90,0.00,,CLR,0.00,0.00,VWS V14.00,2013-03-07 11:01:00,
2013-03-07 05:06:00,15.0,12.6,30.16,ESE,105,12.0,21.0,90,0.00,,CLR,0.00,0.00,VWS V14.00,2013-03-07 11:06:00,
2013-03-07 05:11:00,14.8,12.4,30.15,East,91,18.0,21.0,90,0.00,,CLR,0.00,0.00,VWS V14.00,2013-03-07 11:11:00,
2013-03-07 05:17:00,14.8,12.6,30.15,East,93,14.0,21.0,91,0.00,,CLR,0.00,0.00,VWS V14.00,2013-03-07 11:17:00,
2013-03-07 05:22:00,14.7,12.3,30.16,ESE,103,13.0,21.0,90,0.00,,CLR,0.00,0.00,VWS V14.00,2013-03-07 11:22:00,
2013-03-07 05:27:00,14.6,12.2,30.16,East,96,16.0,21.0,90,0.00,,CLR,0.00,0.00,VWS V14.00,2013-03-07 11:27:00,
2013-03-07 05:32:00,14.5,12.1,30.16,East,88,15.0,18.0,90,0.00,,CLR,0.00,0.00,VWS V14.00,2013-03-07 11:32:00,
2013-03-07 05:37:00,14.5,12.1,30.16,East,92,16.0,18.0,90,0.00,,CLR,0.00,0.00,VWS V14.00,2013-03-07 11:37:00,
2013-03-07 05:42:00,14.5,12.4,30.16,East,90,13.0,18.0,91,0.00,,CLR,0.00,0.00,VWS V14.00,2013-03-07 11:42:00,
2013-03-07 05:47:00,14.5,12.4,30.16,East,90,14.0,18.0,91,0.00,,CLR,0.00,0.00,VWS V14.00,2013-03-07 11:47:00,
2013-03-07 05:52:00,14.5,12.4,30.17,East,96,14.0,18.0,91,0.00,,CLR,0.00,0.00,VWS V14.00,2013-03-07 11:52:00,
2013-03-07 05:57:00,14.5,12.4,30.16,East,88,14.0,18.0,91,0.00,,CLR,0.00,0.00,VWS V14.00,2013-03-07 11:57:00,
2013-03-07 06:03:00,14.6,12.5,30.16,East,97,14.0,18.0,91,0.00,,CLR,0.00,0.00,VWS V14.00,2013-03-07 12:03:00,
2013-03-07 06:08:00,14.7,12.6,30.16,ESE,103,12.0,18.0,91,0.00,,CLR,0.00,0.00,VWS V14.00,2013-03-07 12:08:00,
2013-03-07 06:13:00,15.0,12.9,30.16,East,96,16.0,18.0,91,0.00,,CLR,0.00,0.00,VWS V14.00,2013-03-07 12:13:00,
2013-03-07 06:18:00,15.1,12.9,30.16,ESE,107,15.0,19.0,91,0.00,,CLR,0.00,0.00,VWS V14.00,2013-03-07 12:18:00,
2013-03-07 06:23:00,15.1,12.9,30.16,East,82,11.0,19.0,91,0.00,,CLR,0.00,0.00,VWS V14.00,2013-03-07 12:23:00,
2013-03-07 06:28:00,15.0,12.6,30.17,East,94,13.0,19.0,90,0.00,,CLR,0.00,0.00,VWS V14.00,2013-03-07 12:28:00,
2013-03-07 06:33:00,14.5,12.1,30.16,East,98,10.0,17.0,90,0.00,,CLR,0.00,0.00,VWS V14.00,2013-03-07 12:33:00,
2013-03-07 06:38:00,14.2,11.8,30.16,East,98,13.0,17.0,90,0.00,,CLR,0.00,0.00,VWS V14.00,2013-03-07 12:38:00,
2013-03-07 06:43:00,14.0,11.6,30.16,ESE,103,12.0,18.0,90,0.00,,CLR,0.00,0.00,VWS V14.00,2013-03-07 12:43:00,
2013-03-07 06:48:00,14.0,11.6,30.16,East,90,11.0,18.0,90,0.00,,CLR,0.00,0.00,VWS V14.00,2013-03-07 12:48:00,
2013-03-07 06:53:00,14.1,12.0,30.16,East,99,11.0,18.0,91,0.00,,BKN015,0.00,0.00,VWS V14.00,2013-03-07 12:53:00,
2013-03-07 06:59:00,14.2,12.1,30.15,ESE,103,13.0,13.0,91,0.00,,BKN015,0.00,0.00,VWS V14.00,2013-03-07 12:59:00,
2013-03-07 07:04:00,14.5,12.4,30.16,East,98,9.0,17.0,91,0.00,,BKN015,0.00,0.00,VWS V14.00,2013-03-07 13:04:00,
2013-03-07 07:09:00,14.8,12.6,30.16,ESE,103,12.0,17.0,91,0.00,,BKN015,0.00,0.00,VWS V14.00,2013-03-07 13:09:00,
2013-03-07 07:14:00,14.8,12.6,30.16,ESE,104,11.0,17.0,91,0.00,,BKN015,0.00,5.00,VWS V14.00,2013-03-07 13:14:00,
2013-03-07 07:19:00,15.2,13.1,30.16,ESE,107,11.0,17.0,91,0.00,,BKN015,0.00,9.00,VWS V14.00,2013-03-07 13:19:00,
2013-03-07 07:24:00,15.5,13.4,30.16,ESE,107,15.0,17.0,91,0.00,,BKN015,0.00,11.00,VWS V14.00,2013-03-07 13:24:00,
2013-03-07 07:29:00,15.9,13.7,30.16,ESE,111,11.0,15.0,91,0.00,,BKN015,0.00,14.00,VWS V14.00,2013-03-07 13:29:00,
2013-03-07 07:34:00,16.0,13.8,30.16,ESE,111,12.0,16.0,91,0.00,,BKN015,0.00,18.00,VWS V14.00,2013-03-07 13:34:00,
2013-03-07 07:40:00,16.4,14.2,30.17,ESE,116,14.0,17.0,91,0.00,,OVC014,0.00,25.00,VWS V14.00,2013-03-07 13:40:00,
2013-03-07 07:45:00,16.7,14.5,30.17,ESE,114,14.0,17.0,91,0.00,,OVC014,0.00,28.00,VWS V14.00,2013-03-07 13:45:00,
2013-03-07 07:50:00,17.1,14.9,30.17,SE,126,13.0,17.0,91,0.00,,OVC014,0.00,33.00,VWS V14.00,2013-03-07 13:50:00,
2013-03-07 07:55:00,17.3,15.1,30.17,SE,131,11.0,17.0,91,0.00,,OVC014,0.00,40.00,VWS V14.00,2013-03-07 13:55:00,
2013-03-07 08:00:00,17.7,15.5,30.17,ESE,119,13.0,15.0,91,0.00,,OVC014,0.00,46.00,VWS V14.00,2013-03-07 14:00:00,
2013-03-07 08:05:00,17.9,15.5,30.17,ESE,119,15.0,17.0,90,0.00,,OVC014,0.00,53.00,VWS V14.00,2013-03-07 14:05:00,
2013-03-07 08:11:00,18.0,15.6,30.17,SE,126,14.0,17.0,90,0.00,,OVC014,0.00,63.00,VWS V14.00,2013-03-07 14:11:00,
2013-03-07 08:16:00,18.2,15.8,30.17,ESE,121,14.0,21.0,90,0.00,,OVC014,0.00,72.00,VWS V14.00,2013-03-07 14:16:00,
2013-03-07 08:21:00,18.4,16.0,30.17,SE,129,17.0,21.0,90,0.00,,OVC014,0.00,79.00,VWS V14.00,2013-03-07 14:21:00,
2013-03-07 08:26:00,18.6,16.2,30.17,SE,132,17.0,21.0,90,0.00,,OVC014,0.00,86.00,VWS V14.00,2013-03-07 14:26:00,
2013-03-07 08:31:00,18.7,16.3,30.17,ESE,122,15.0,20.0,90,0.00,,OVC014,0.00,91.00,VWS V14.00,2013-03-07 14:31:00,
2013-03-07 08:36:00,18.8,16.4,30.18,ESE,121,17.0,21.0,90,0.00,,OVC014,0.00,98.00,VWS V14.00,2013-03-07 14:36:00,
2013-03-07 08:41:00,18.9,16.5,30.17,SE,126,15.0,21.0,90,0.00,,OVC013,0.00,104.00,VWS V14.00,2013-03-07 14:41:00,
2013-03-07 08:46:00,18.9,16.5,30.17,ESE,121,19.0,22.0,90,0.00,,OVC013,0.00,114.00,VWS V14.00,2013-03-07 14:46:00,
2013-03-07 08:51:00,19.0,16.6,30.17,ESE,121,20.0,22.0,90,0.00,,OVC013,0.00,123.00,VWS V14.00,2013-03-07 14:51:00,
2013-03-07 08:56:00,19.0,16.6,30.17,ESE,121,16.0,22.0,90,0.00,,OVC013,0.00,121.00,VWS V14.00,2013-03-07 14:56:00,
2013-03-07 09:01:00,19.1,16.7,30.17,ESE,121,15.0,19.0,90,0.00,,OVC013,0.00,125.00,VWS V14.00,2013-03-07 15:01:00,
2013-03-07 09:06:00,19.2,16.8,30.17,SE,126,12.0,21.0,90,0.00,,OVC013,0.00,134.00,VWS V14.00,2013-03-07 15:06:00,
2013-03-07 09:11:00,19.4,17.0,30.17,SE,145,11.0,22.0,90,0.00,,OVC013,0.00,134.00,VWS V14.00,2013-03-07 15:11:00,
2013-03-07 09:17:00,19.6,17.1,30.17,SE,138,17.0,23.0,90,0.00,,OVC013,0.00,139.00,VWS V14.00,2013-03-07 15:17:00,
2013-03-07 09:22:00,19.8,17.4,30.18,SE,140,13.0,23.0,90,0.00,,OVC013,0.00,155.00,VWS V14.00,2013-03-07 15:22:00,
2013-03-07 09:27:00,19.9,17.5,30.17,SE,141,17.0,23.0,90,0.00,,OVC013,0.00,176.00,VWS V14.00,2013-03-07 15:27:00,
2013-03-07 09:32:00,20.1,17.6,30.18,SE,134,17.0,23.0,90,0.00,,OVC013,0.00,185.00,VWS V14.00,2013-03-07 15:32:00,
2013-03-07 09:38:00,20.3,17.8,30.18,SE,133,16.0,23.0,90,0.00,,OVC013,0.00,169.00,VWS V14.00,2013-03-07 15:38:00,
2013-03-07 09:43:00,20.4,17.9,30.18,SE,136,14.0,23.0,90,0.00,,OVC011,0.00,179.00,VWS V14.00,2013-03-07 15:43:00,
2013-03-07 09:48:00,20.5,18.0,30.17,SE,132,15.0,23.0,90,0.00,,OVC011,0.00,213.00,VWS V14.00,2013-03-07 15:48:00,
2013-03-07 09:54:00,20.6,18.1,30.17,SE,133,19.0,23.0,90,0.00,,OVC011,0.00,220.00,VWS V14.00,2013-03-07 15:54:00,
2013-03-07 09:59:00,20.7,18.2,30.17,SE,130,20.0,21.0,90,0.00,,OVC011,0.00,229.00,VWS V14.00,2013-03-07 15:59:00,
2013-03-07 10:04:00,20.8,18.3,30.17,SE,130,15.0,22.0,90,0.00,,OVC011,0.00,232.00,VWS V14.00,2013-03-07 16:04:00,
2013-03-07 10:09:00,20.8,18.3,30.18,ESE,123,20.0,22.0,90,0.00,,OVC011,0.00,250.00,VWS V14.00,2013-03-07 16:09:00,
2013-03-07 10:14:00,20.9,18.4,30.17,SSE,150,13.0,22.0,90,0.00,,OVC011,0.00,267.00,VWS V14.00,2013-03-07 16:14:00,
2013-03-07 10:19:00,21.1,18.6,30.17,SE,137,15.0,22.0,90,0.00,,OVC011,0.00,251.00,VWS V14.00,2013-03-07 16:19:00,
2013-03-07 10:24:00,21.1,18.6,30.18,SE,145,17.0,24.0,90,0.00,,OVC011,0.00,243.00,VWS V14.00,2013-03-07 16:24:00,
2013-03-07 10:29:00,21.2,18.7,30.18,SE,128,12.0,19.0,90,0.00,,OVC011,0.00,274.00,VWS V14.00,2013-03-07 16:29:00,
2013-03-07 10:35:00,21.3,18.8,30.18,SSE,151,13.0,20.0,90,0.00,,OVC011,0.00,288.00,VWS V14.00,2013-03-07 16:35:00,
2013-03-07 10:40:00,21.5,19.0,30.17,SE,139,17.0,20.0,90,0.00,,OVC011,0.00,274.00,VWS V14.00,2013-03-07 16:40:00,
2013-03-07 10:45:00,21.5,19.0,30.18,SSE,150,14.0,20.0,90,0.00,,OVC011,0.00,285.00,VWS V14.00,2013-03-07 16:45:00,
2013-03-07 10:50:00,21.7,19.2,30.18,SSE,151,10.0,20.0,90,0.00,,OVC011,0.00,306.00,VWS V14.00,2013-03-07 16:50:00,
2013-03-07 10:55:00,21.7,19.0,30.18,SE,143,18.0,20.0,89,0.00,,OVC011,0.00,271.00,VWS V14.00,2013-03-07 16:55:00,
2013-03-07 11:00:00,21.7,19.2,30.18,SSE,166,14.0,17.0,90,0.00,,OVC011,0.00,272.00,VWS V14.00,2013-03-07 17:00:00,
2013-03-07 11:05:00,21.7,19.0,30.17,SE,146,15.0,18.0,89,0.00,,OVC011,0.00,299.00,VWS V14.00,2013-03-07 17:05:00,
2013-03-07 11:10:00,21.9,19.4,30.17,SSE,148,15.0,18.0,90,0.00,,OVC011,0.00,290.00,VWS V14.00,2013-03-07 17:10:00,
2013-03-07 11:15:00,22.0,19.3,30.17,SE,138,16.0,19.0,89,0.00,,OVC011,0.00,309.00,VWS V14.00,2013-03-07 17:15:00,
2013-03-07 11:20:00,22.1,19.4,30.19,SE,133,14.0,19.0,89,0.00,,OVC011,0.00,316.00,VWS V14.00,2013-03-07 17:20:00,
2013-03-07 11:26:00,22.2,19.7,30.19,SE,146,10.0,19.0,90,0.00,,OVC011,0.00,285.00,VWS V14.00,2013-03-07 17:26:00,
2013-03-07 11:31:00,22.4,19.7,30.19,SE,139,10.0,13.0,89,0.00,,OVC011,0.00,308.00,VWS V14.00,2013-03-07 17:31:00,
2013-03-07 11:36:00,22.6,19.9,30.19,SE,142,11.0,13.0,89,0.00,,OVC011,0.00,278.00,VWS V14.00,2013-03-07 17:36:00,
2013-03-07 11:41:00,22.7,20.0,30.18,SSE,149,11.0,13.0,89,0.00,,OVC011,0.00,301.00,VWS V14.00,2013-03-07 17:41:00,
2013-03-07 11:46:00,22.9,20.1,30.18,SE,142,10.0,15.0,89,0.00,,OVC011,0.00,346.00,VWS V14.00,2013-03-07 17:46:00,
2013-03-07 11:51:00,23.0,20.2,30.18,SE,145,6.0,15.0,89,0.00,,OVC011,0.00,346.00,VWS V14.00,2013-03-07 17:51:00,
2013-03-07 11:56:00,23.2,20.5,30.18,SE,141,8.0,15.0,89,0.00,,OVC011,0.00,394.00,VWS V14.00,2013-03-07 17:56:00,
2013-03-07 12:01:00,23.4,20.6,30.18,SSE,148,10.0,15.0,89,0.00,,OVC011,0.00,406.00,VWS V14.00,2013-03-07 18:01:00,
2013-03-07 12:06:00,23.5,20.7,30.18,SSE,151,6.0,15.0,89,0.00,,OVC011,0.00,369.00,VWS V14.00,2013-03-07 18:06:00,
2013-03-07 12:11:00,23.6,20.8,30.18,SSE,162,11.0,15.0,89,0.00,,OVC011,0.00,359.00,VWS V14.00,2013-03-07 18:11:00,
2013-03-07 12:17:00,23.6,20.8,30.17,SE,138,8.0,15.0,89,0.00,,OVC011,0.00,362.00,VWS V14.00,2013-03-07 18:17:00,
2013-03-07 12:22:00,23.7,20.9,30.17,SE,140,10.0,15.0,89,0.00,,OVC011,0.00,357.00,VWS V14.00,2013-03-07 18:22:00,
2013-03-07 12:27:00,23.9,21.1,30.18,SE,146,10.0,15.0,89,0.00,,OVC011,0.00,348.00,VWS V14.00,2013-03-07 18:27:00,
2013-03-07 12:32:00,23.9,21.1,30.17,SE,136,10.0,13.0,89,0.00,,OVC011,0.00,357.00,VWS V14.00,2013-03-07 18:32:00,
2013-03-07 12:37:00,24.3,21.5,30.17,SE,141,12.0,13.0,89,0.00,,OVC011,0.00,429.00,VWS V14.00,2013-03-07 18:37:00,
2013-03-07 12:42:00,24.2,21.4,30.17,SSE,156,8.0,15.0,89,0.00,,OVC011,0.00,378.00,VWS V14.00,2013-03-07 18:42:00,
2013-03-07 12:47:00,24.3,21.5,30.17,SSE,153,14.0,15.0,89,0.00,,OVC011,0.00,415.00,VWS V14.00,2013-03-07 18:47:00,
2013-03-07 12:52:00,24.5,21.7,30.17,SSE,159,13.0,15.0,89,0.00,,OVC011,0.00,441.00,VWS V14.00,2013-03-07 18:52:00,
2013-03-07 12:57:00,24.5,21.7,30.17,SSE,155,9.0,15.0,89,0.00,,OVC011,0.00,427.00,VWS V14.00,2013-03-07 18:57:00,
2013-03-07 13:02:00,24.8,22.0,30.17,SSE,151,12.0,13.0,89,0.00,,OVC011,0.00,403.00,VWS V14.00,2013-03-07 19:02:00,
2013-03-07 13:07:00,24.6,21.6,30.17,SSE,153,12.0,14.0,88,0.00,,OVC011,0.00,350.00,VWS V14.00,2013-03-07 19:07:00,
2013-03-07 13:12:00,24.6,21.6,30.17,SSE,157,11.0,14.0,88,0.00,,OVC011,0.00,387.00,VWS V14.00,2013-03-07 19:12:00,
2013-03-07 13:17:00,24.8,22.0,30.17,SE,145,12.0,15.0,89,0.00,,OVC011,0.00,366.00,VWS V14.00,2013-03-07 19:17:00,
2013-03-07 13:22:00,24.8,21.8,30.17,SSE,149,13.0,15.0,88,0.00,,OVC011,0.00,334.00,VWS V14.00,2013-03-07 19:22:00,
2013-03-07 13:28:00,24.9,21.9,30.17,South,173,7.0,15.0,88,0.00,,OVC011,0.00,392.00,VWS V14.00,2013-03-07 19:28:00,
2013-03-07 13:33:00,25.2,22.1,30.17,SSE,160,11.0,12.0,88,0.00,,OVC011,0.00,443.00,VWS V14.00,2013-03-07 19:33:00,
2013-03-07 13:39:00,25.4,22.4,30.17,SSE,163,10.0,13.0,88,0.00,,OVC011,0.00,352.00,VWS V14.00,2013-03-07 19:39:00,
2013-03-07 13:44:00,25.3,22.2,30.17,SSE,160,10.0,13.0,88,0.00,,OVC012,0.00,269.00,VWS V14.00,2013-03-07 19:44:00,
2013-03-07 13:49:00,25.4,22.4,30.16,SSE,159,8.0,13.0,88,0.00,,OVC012,0.00,294.00,VWS V14.00,2013-03-07 19:49:00,
2013-03-07 13:54:00,25.4,22.4,30.16,SSE,161,6.0,13.0,88,0.00,,OVC012,0.00,299.00,VWS V14.00,2013-03-07 19:54:00,
2013-03-07 13:59:00,25.6,22.5,30.16,SSE,150,6.0,8.0,88,0.00,,OVC012,0.00,299.00,VWS V14.00,2013-03-07 19:59:00,
2013-03-07 14:04:00,25.7,22.6,30.16,SSE,150,7.0,11.0,88,0.00,,OVC012,0.00,301.00,VWS V14.00,2013-03-07 20:04:00,
2013-03-07 14:09:00,25.8,22.7,30.16,SSE,159,5.0,11.0,88,0.00,,OVC012,0.00,308.00,VWS V14.00,2013-03-07 20:09:00,
2013-03-07 14:14:00,26.0,22.9,30.16,SSE,157,7.0,11.0,88,0.00,,OVC012,0.00,348.00,VWS V14.00,2013-03-07 20:14:00,
2013-03-07 14:19:00,26.1,23.0,30.16,SSE,159,5.0,11.0,88,0.00,,OVC012,0.00,362.00,VWS V14.00,2013-03-07 20:19:00,
2013-03-07 14:24:00,26.3,23.2,30.17,SSE,161,4.0,11.0,88,0.00,,OVC012,0.00,318.00,VWS V14.00,2013-03-07 20:24:00,
2013-03-07 14:30:00,26.4,23.1,30.17,SSE,161,6.0,6.0,87,0.00,,OVC012,0.00,258.00,VWS V14.00,2013-03-07 20:30:00,
2013-03-07 14:35:00,26.4,23.1,30.17,SSE,161,5.0,7.0,87,0.00,,OVC012,0.00,315.00,VWS V14.00,2013-03-07 20:35:00,
2013-03-07 14:40:00,26.7,23.4,30.17,SSE,161,3.0,7.0,87,0.00,,OVC012,0.00,313.00,VWS V14.00,2013-03-07 20:40:00,
2013-03-07 14:45:00,26.9,23.6,30.18,SSE,161,4.0,7.0,87,0.00,,OVC012,0.00,313.00,VWS V14.00,2013-03-07 20:45:00,
2013-03-07 14:50:00,27.1,23.5,30.18,SSE,161,3.0,7.0,86,0.00,,OVC012,0.00,345.00,VWS V14.00,2013-03-07 20:50:00,
2013-03-07 14:55:00,27.4,23.5,30.18,SSE,161,5.0,7.0,85,0.00,,OVC013,0.00,309.00,VWS V14.00,2013-03-07 20:55:00,
2013-03-07 15:00:00,27.2,23.3,30.19,South,181,7.0,8.0,85,0.00,,OVC013,0.00,278.00,VWS V14.00,2013-03-07 21:00:00,
2013-03-07 15:05:00,27.1,23.2,30.19,South,184,5.0,8.0,85,0.00,,OVC013,0.00,221.00,VWS V14.00,2013-03-07 21:05:00,
2013-03-07 15:10:00,27.0,23.1,30.20,South,184,7.0,8.0,85,0.00,,OVC013,0.00,163.00,VWS V14.00,2013-03-07 21:10:00,
2013-03-07 15:15:00,27.0,23.1,30.19,South,186,5.0,8.0,85,0.00,,OVC013,0.00,223.00,VWS V14.00,2013-03-07 21:15:00,
2013-03-07 15:21:00,26.9,23.3,30.19,South,186,5.0,8.0,86,0.00,,OVC013,0.00,236.00,VWS V14.00,2013-03-07 21:21:00,
2013-03-07 15:26:00,27.1,23.5,30.19,South,186,3.0,8.0,86,0.00,,OVC013,0.00,225.00,VWS V14.00,2013-03-07 21:26:00,
2013-03-07 15:31:00,27.3,23.7,30.20,South,190,5.0,7.0,86,0.00,,OVC013,0.00,211.00,VWS V14.00,2013-03-07 21:31:00,
2013-03-07 15:36:00,27.4,23.8,30.20,South,190,6.0,7.0,86,0.00,,OVC013,0.00,206.00,VWS V14.00,2013-03-07 21:36:00,
2013-03-07 15:41:00,27.4,23.8,30.20,South,190,3.0,7.0,86,0.00,,OVC015,0.00,183.00,VWS V14.00,2013-03-07 21:41:00,
2013-03-07 15:46:00,27.4,23.8,30.20,South,190,4.0,7.0,86,0.00,,OVC015,0.00,199.00,VWS V14.00,2013-03-07 21:46:00,
2013-03-07 15:51:00,27.5,23.9,30.20,South,190,6.0,7.0,86,0.00,,OVC014,0.00,202.00,VWS V14.00,2013-03-07 21:51:00,
2013-03-07 15:56:00,27.5,23.9,30.20,SSW,194,5.0,8.0,86,0.00,,OVC014,0.00,190.00,VWS V14.00,2013-03-07 21:56:00,
2013-03-07 16:01:00,27.4,23.8,30.20,SSW,194,7.0,8.0,86,0.00,,OVC014,0.00,174.00,VWS V14.00,2013-03-07 22:01:00,
2013-03-07 16:06:00,27.4,23.8,30.20,SSW,195,5.0,8.0,86,0.00,,OVC014,0.00,176.00,VWS V14.00,2013-03-07 22:06:00,
2013-03-07 16:12:00,27.4,23.8,30.20,SSW,195,5.0,8.0,86,0.00,,OVC014,0.00,165.00,VWS V14.00,2013-03-07 22:12:00,
2013-03-07 16:17:00,27.4,23.8,30.20,SSW,196,5.0,8.0,86,0.00,,OVC014,0.00,149.00,VWS V14.00,2013-03-07 22:17:00,
2013-03-07 16:22:00,27.4,23.8,30.20,SSW,202,6.0,8.0,86,0.00,,OVC014,0.00,158.00,VWS V14.00,2013-03-07 22:22:00,
2013-03-07 16:27:00,27.3,23.7,30.20,SSW,202,3.0,8.0,86,0.00,,OVC014,0.00,128.00,VWS V14.00,2013-03-07 22:27:00,
2013-03-07 16:32:00,27.4,23.8,30.20,SSW,202,6.0,7.0,86,0.00,,OVC014,0.00,139.00,VWS V14.00,2013-03-07 22:32:00,
2013-03-07 16:37:00,27.4,24.0,30.20,SSW,203,5.0,7.0,87,0.00,,OVC014,0.00,142.00,VWS V14.00,2013-03-07 22:37:00,
2013-03-07 16:42:00,27.2,23.6,30.20,SSW,203,5.0,7.0,86,0.00,,OVC014,0.00,114.00,VWS V14.00,2013-03-07 22:42:00,
2013-03-07 16:47:00,27.3,23.7,30.20,SSW,210,6.0,7.0,86,0.00,,OVC014,0.00,141.00,VWS V14.00,2013-03-07 22:47:00,
2013-03-07 16:52:00,27.3,24.0,30.20,SW,219,6.0,8.0,87,0.00,,OVC014,0.00,125.00,VWS V14.00,2013-03-07 22:52:00,
2013-03-07 16:57:00,27.2,23.9,30.20,SW,223,5.0,8.0,87,0.00,,OVC014,0.00,120.00,VWS V14.00,2013-03-07 22:57:00,
2013-03-07 17:02:00,27.1,23.8,30.21,SW,223,4.0,7.0,87,0.00,,OVC014,0.00,111.00,VWS V14.00,2013-03-07 23:02:00,
2013-03-07 17:07:00,27.2,23.9,30.21,SW,223,3.0,7.0,87,0.00,,OVC014,0.00,97.00,VWS V14.00,2013-03-07 23:07:00,
2013-03-07 17:12:00,27.3,24.0,30.21,SW,223,3.0,7.0,87,0.00,,OVC014,0.00,90.00,VWS V14.00,2013-03-07 23:12:00,
2013-03-07 17:17:00,27.2,23.9,30.21,SW,227,6.0,9.0,87,0.00,,OVC014,0.00,86.00,VWS V14.00,2013-03-07 23:17:00,
2013-03-07 17:22:00,27.1,23.5,30.21,West,263,8.0,10.0,86,0.00,,OVC014,0.00,72.00,VWS V14.00,2013-03-07 23:22:00,
2013-03-07 17:28:00,27.0,23.4,30.21,West,273,5.0,10.0,86,0.00,,OVC014,0.00,86.00,VWS V14.00,2013-03-07 23:28:00,
2013-03-07 17:34:00,27.1,23.8,30.21,West,273,5.0,5.0,87,0.00,,OVC014,0.00,62.00,VWS V14.00,2013-03-07 23:34:00,
2013-03-07 17:39:00,27.1,23.8,30.21,West,273,3.0,5.0,87,0.00,,OVC014,0.00,51.00,VWS V14.00,2013-03-07 23:39:00,
2013-03-07 17:44:00,27.1,23.8,30.21,West,273,2.0,5.0,87,0.00,,OVC014,0.00,49.00,VWS V14.00,2013-03-07 23:44:00,
2013-03-07 17:49:00,27.2,23.9,30.21,West,273,4.0,5.0,87,0.00,,OVC014,0.00,40.00,VWS V14.00,2013-03-07 23:49:00,
2013-03-07 17:54:00,27.2,23.9,30.22,West,273,1.0,5.0,87,0.00,,OVC014,0.00,35.00,VWS V14.00,2013-03-07 23:54:00,
2013-03-07 17:59:00,27.2,23.9,30.22,West,273,3.0,3.0,87,0.00,,OVC014,0.00,35.00,VWS V14.00,2013-03-07 23:59:00,
2013-03-07 18:04:00,27.2,23.9,30.22,West,273,2.0,4.0,87,0.00,,OVC014,0.00,35.00,VWS V14.00,2013-03-08 00:04:00,
2013-03-07 18:09:00,27.2,23.9,30.22,West,273,3.0,4.0,87,0.00,,OVC014,0.00,28.00,VWS V14.00,2013-03-08 00:09:00,
2013-03-07 18:14:00,27.1,23.8,30.22,West,273,2.0,4.0,87,0.00,,OVC015,0.00,21.00,VWS V14.00,2013-03-08 00:14:00,
2013-03-07 18:21:00,27.1,23.8,30.22,West,273,2.0,4.0,87,0.00,,OVC015,0.00,16.00,VWS V14.00,2013-03-08 00:21:00,
2013-03-07 18:26:00,27.1,23.8,30.22,West,273,2.0,4.0,87,0.00,,OVC015,0.00,11.00,VWS V14.00,2013-03-08 00:26:00,
2013-03-07 18:31:00,27.1,23.8,30.22,West,273,2.0,3.0,87,0.00,,OVC015,0.00,7.00,VWS V14.00,2013-03-08 00:31:00,
2013-03-07 18:36:00,27.1,23.8,30.22,West,273,0.0,3.0,87,0.00,,OVC015,0.00,5.00,VWS V14.00,2013-03-08 00:36:00,
2013-03-07 18:42:00,27.0,23.6,30.23,West,273,1.0,3.0,87,0.00,,OVC015,0.00,0.00,VWS V14.00,2013-03-08 00:42:00,
2013-03-07 18:47:00,27.0,23.6,30.22,West,273,1.0,3.0,87,0.00,,OVC015,0.00,0.00,VWS V14.00,2013-03-08 00:47:00,
2013-03-07 18:52:00,27.0,23.6,30.22,West,273,1.0,3.0,87,0.00,,OVC015,0.00,0.00,VWS V14.00,2013-03-08 00:52:00,
2013-03-07 18:58:00,27.0,23.9,30.22,West,273,0.0,3.0,88,0.00,,OVC015,0.00,0.00,VWS V14.00,2013-03-08 00:58:00,
2013-03-07 19:03:00,26.9,23.8,30.22,West,273,0.0,0.0,88,0.01,,OVC015,0.01,0.00,VWS V14.00,2013-03-08 01:03:00,
2013-03-07 19:08:00,26.9,23.8,30.22,West,273,0.0,0.0,88,0.01,,OVC015,0.01,0.00,VWS V14.00,2013-03-08 01:08:00,
2013-03-07 19:13:00,26.9,23.8,30.23,West,273,0.0,0.0,88,0.01,,OVC015,0.01,0.00,VWS V14.00,2013-03-08 01:13:00,
2013-03-07 19:18:00,26.9,23.8,30.23,West,273,2.0,2.0,88,0.01,,OVC015,0.01,0.00,VWS V14.00,2013-03-08 01:18:00,
2013-03-07 19:23:00,26.9,23.8,30.23,West,273,3.0,3.0,88,0.01,,OVC015,0.01,0.00,VWS V14.00,2013-03-08 01:23:00,
2013-03-07 19:28:00,26.8,23.7,30.23,West,273,2.0,3.0,88,0.01,,OVC015,0.01,0.00,VWS V14.00,2013-03-08 01:28:00,
2013-03-07 19:33:00,26.6,23.5,30.23,West,273,2.0,3.0,88,0.01,,OVC015,0.01,0.00,VWS V14.00,2013-03-08 01:33:00,
2013-03-07 19:38:00,26.5,23.4,30.23,West,273,1.0,3.0,88,0.01,,OVC015,0.01,0.00,VWS V14.00,2013-03-08 01:38:00,
2013-03-07 19:43:00,26.3,23.2,30.23,West,273,0.0,3.0,88,0.01,,OVC022,0.01,0.00,VWS V14.00,2013-03-08 01:43:00,
2013-03-07 19:48:00,26.1,23.0,30.23,West,273,2.0,3.0,88,0.01,,OVC022,0.01,0.00,VWS V14.00,2013-03-08 01:48:00,
2013-03-07 19:53:00,25.7,22.6,30.23,West,273,2.0,3.0,88,0.01,,OVC022,0.01,0.00,VWS V14.00,2013-03-08 01:53:00,
2013-03-07 19:58:00,25.4,22.4,30.23,West,273,2.0,2.0,88,0.01,,OVC022,0.01,0.00,VWS V14.00,2013-03-08 01:58:00,
2013-03-07 20:04:00,25.2,22.4,30.23,West,273,2.0,3.0,89,0.01,,OVC022,0.01,0.00,VWS V14.00,2013-03-08 02:04:00,
2013-03-07 20:09:00,25.1,22.3,30.24,West,273,2.0,3.0,89,0.01,,OVC022,0.01,0.00,VWS V14.00,2013-03-08 02:09:00,
2013-03-07 20:14:00,24.8,22.0,30.24,West,273,2.0,3.0,89,0.01,,OVC022,0.01,0.00,VWS V14.00,2013-03-08 02:14:00,
2013-03-07 20:19:00,24.6,22.1,30.24,West,273,1.0,3.0,90,0.01,,OVC022,0.01,0.00,VWS V14.00,2013-03-08 02:19:00,
2013-03-07 20:25:00,24.7,22.2,30.24,West,273,0.0,3.0,90,0.01,,OVC022,0.01,0.00,VWS V14.00,2013-03-08 02:25:00,
2013-03-07 20:30:00,24.9,22.6,30.24,West,273,0.0,0.0,91,0.00,,OVC022,0.01,0.00,VWS V14.00,2013-03-08 02:30:00,
2013-03-07 20:35:00,25.2,23.0,30.24,West,273,1.0,2.0,91,0.00,,OVC022,0.01,0.00,VWS V14.00,2013-03-08 02:35:00,
2013-03-07 20:40:00,25.3,22.8,30.24,West,273,0.0,2.0,90,0.00,,SCT020,0.01,0.00,VWS V14.00,2013-03-08 02:40:00,
2013-03-07 20:45:00,25.3,23.0,30.25,West,273,1.0,2.0,91,0.00,,SCT020,0.01,0.00,VWS V14.00,2013-03-08 02:45:00,
2013-03-07 20:50:00,25.4,23.1,30.25,West,273,0.0,2.0,91,0.00,,SCT020,0.01,0.00,VWS V14.00,2013-03-08 02:50:00,
2013-03-07 20:55:00,25.5,23.2,30.24,West,273,0.0,2.0,91,0.00,,SCT020,0.01,0.00,VWS V14.00,2013-03-08 02:55:00,
2013-03-07 21:00:00,25.6,23.3,30.24,West,273,0.0,0.0,91,0.00,,SCT020,0.01,0.00,VWS V14.00,2013-03-08 03:00:00,
2013-03-07 21:05:00,25.8,23.5,30.24,West,273,0.0,0.0,91,0.00,,SCT020,0.01,0.00,VWS V14.00,2013-03-08 03:05:00,
2013-03-07 21:10:00,25.8,23.3,30.24,West,273,0.0,2.0,90,0.00,,SCT020,0.01,0.00,VWS V14.00,2013-03-08 03:10:00,
2013-03-07 21:15:00,25.8,23.3,30.24,West,273,0.0,2.0,90,0.00,,SCT020,0.01,0.00,VWS V14.00,2013-03-08 03:15:00,
2013-03-07 21:21:00,25.8,23.3,30.24,West,273,2.0,2.0,90,0.00,,SCT020,0.01,0.00,VWS V14.00,2013-03-08 03:21:00,
2013-03-07 21:26:00,25.7,23.2,30.25,West,273,2.0,3.0,90,0.00,,SCT020,0.01,0.00,VWS V14.00,2013-03-08 03:26:00,
2013-03-07 21:31:00,25.7,23.2,30.25,West,273,3.0,3.0,90,0.00,,SCT020,0.01,0.00,VWS V14.00,2013-03-08 03:31:00,
2013-03-07 21:36:00,25.6,23.1,30.25,West,273,3.0,4.0,90,0.00,,SCT020,0.01,0.00,VWS V14.00,2013-03-08 03:36:00,
2013-03-07 21:41:00,25.5,23.0,30.25,West,273,3.0,4.0,90,0.00,,BKN023,0.01,0.00,VWS V14.00,2013-03-08 03:41:00,
2013-03-07 21:46:00,25.3,23.0,30.26,West,273,3.0,5.0,91,0.00,,BKN023,0.01,0.00,VWS V14.00,2013-03-08 03:46:00,
2013-03-07 21:51:00,25.2,23.0,30.26,West,273,4.0,5.0,91,0.00,,BKN023,0.01,0.00,VWS V14.00,2013-03-08 03:51:00,
2013-03-07 21:56:00,25.1,22.9,30.26,West,273,3.0,5.0,91,0.00,,BKN023,0.01,0.00,VWS V14.00,2013-03-08 03:56:00,
2013-03-07 22:01:00,25.1,22.9,30.26,West,273,2.0,3.0,91,0.00,,BKN023,0.01,0.00,VWS V14.00,2013-03-08 04:01:00,
2013-03-07 22:06:00,25.1,22.9,30.27,West,273,3.0,4.0,91,0.00,,BKN023,0.01,0.00,VWS V14.00,2013-03-08 04:06:00,
2013-03-07 22:11:00,25.3,23.0,30.27,West,273,4.0,4.0,91,0.00,,BKN023,0.01,0.00,VWS V14.00,2013-03-08 04:11:00,
2013-03-07 22:16:00,25.6,23.6,30.27,West,273,3.0,5.0,92,0.00,,BKN023,0.01,0.00,VWS V14.00,2013-03-08 04:16:00,
2013-03-07 22:21:00,25.8,23.5,30.27,West,273,3.0,5.0,91,0.00,,BKN023,0.01,0.00,VWS V14.00,2013-03-08 04:21:00,
2013-03-07 22:26:00,25.8,23.5,30.27,West,273,2.0,5.0,91,0.00,,BKN023,0.01,0.00,VWS V14.00,2013-03-08 04:26:00,
2013-03-07 22:31:00,25.8,23.5,30.27,West,273,3.0,4.0,91,0.00,,BKN023,0.01,0.00,VWS V14.00,2013-03-08 04:31:00,
2013-03-07 22:36:00,26.1,23.8,30.27,West,273,5.0,5.0,91,0.00,,BKN023,0.01,0.00,VWS V14.00,2013-03-08 04:36:00,
2013-03-07 22:41:00,26.4,24.1,30.28,West,271,3.0,6.0,91,0.00,,OVC023,0.01,0.00,VWS V14.00,2013-03-08 04:41:00,
2013-03-07 22:46:00,26.7,24.4,30.28,WSW,249,2.0,6.0,91,0.00,,OVC023,0.01,0.00,VWS V14.00,2013-03-08 04:46:00,
2013-03-07 22:51:00,26.7,24.2,30.28,SW,236,4.0,8.0,90,0.00,,OVC023,0.01,0.00,VWS V14.00,2013-03-08 04:51:00,
2013-03-07 22:56:00,26.8,24.5,30.28,SW,232,2.0,8.0,91,0.00,,OVC023,0.01,0.00,VWS V14.00,2013-03-08 04:56:00,
2013-03-07 23:00:00,26.8,24.3,30.28,SW,216,4.0,7.0,90,0.00,,OVC023,0.01,0.00,VWS V14.00,2013-03-08 05:00:00,
2013-03-07 23:01:00,26.9,24.4,30.28,SW,216,3.0,7.0,90,0.00,,OVC023,0.01,0.00,VWS V14.00,2013-03-08 05:01:00,
2013-03-07 23:03:00,26.9,24.4,30.28,SW,216,4.0,7.0,90,0.00,,OVC023,0.01,0.00,VWS V14.00,2013-03-08 05:03:00,
2013-03-07 23:08:00,26.9,24.4,30.28,SSW,213,3.0,7.0,90,0.00,,OVC023,0.01,0.00,VWS V14.00,2013-03-08 05:08:00,
2013-03-07 23:13:00,26.9,24.4,30.28,SSW,213,3.0,7.0,90,0.00,,OVC023,0.01,0.00,VWS V14.00,2013-03-08 05:13:00,
2013-03-07 23:18:00,26.9,24.4,30.28,SSW,213,3.0,7.0,90,0.00,,OVC023,0.01,0.00,VWS V14.00,2013-03-08 05:18:00,
2013-03-07 23:23:00,26.9,24.4,30.28,SSW,213,3.0,7.0,90,0.00,,OVC023,0.01,0.00,VWS V14.00,2013-03-08 05:23:00,
2013-03-07 23:28:00,26.8,24.3,30.28,SSW,213,4.0,7.0,90,0.00,,OVC023,0.01,0.00,VWS V14.00,2013-03-08 05:28:00,
2013-03-07 23:33:00,26.7,24.2,30.28,SSW,212,4.0,6.0,90,0.00,,OVC023,0.01,0.00,VWS V14.00,2013-03-08 05:33:00,
2013-03-07 23:38:00,26.7,24.2,30.28,SSW,210,5.0,6.0,90,0.00,,OVC023,0.01,0.00,VWS V14.00,2013-03-08 05:38:00,
2013-03-07 23:43:00,26.6,24.1,30.28,SSW,194,5.0,7.0,90,0.00,,OVC023,0.01,0.00,VWS V14.00,2013-03-08 05:43:00,
2013-03-07 23:48:00,26.5,24.0,30.28,SSW,194,2.0,7.0,90,0.00,,OVC023,0.01,0.00,VWS V14.00,2013-03-08 05:48:00,
2013-03-07 23:53:00,26.4,23.9,30.28,SSW,194,2.0,7.0,90,0.00,,OVC023,0.01,0.00,VWS V14.00,2013-03-08 05:53:00,
2013-03-07 23:58:00,26.3,23.8,30.28,SSW,194,4.0,4.0,90,0.00,,OVC023,0.00,0.00,VWS V14.00,2013-03-08 05:58:00,